createdAt,value
2018-02-03T00:02:05.357Z,5.51
2018-02-03T00:04:37.733Z,5.46
2018-02-03T00:07:06.934Z,5.42
2018-02-03T00:09:36.456Z,5.38
2018-02-03T00:12:08.268Z,5.36
2018-02-03T00:14:40.213Z,5.38
2018-02-03T00:17:09.723Z,5.39
2018-02-03T00:19:40.022Z,5.28
2018-02-03T00:22:11.213Z,5.31
2018-02-03T00:24:40.629Z,5.22
2018-02-03T00:27:09.502Z,5.17
2018-02-03T00:29:52.910Z,5.13
2018-02-03T00:32:22.813Z,5.18
2018-02-03T00:34:51.741Z,5.22
2018-02-03T00:37:20.505Z,5.25
2018-02-03T00:39:49.569Z,5.27
2018-02-03T00:42:18.750Z,5.24
2018-02-03T00:44:48.388Z,5.27
2018-02-03T00:47:17.469Z,5.28
2018-02-03T00:49:46.238Z,5.26
2018-02-03T00:52:15.058Z,5.25
2018-02-03T00:54:44.158Z,5.24
2018-02-03T00:57:12.962Z,5.30
2018-02-03T00:59:42.004Z,5.31
2018-02-03T01:02:11.093Z,5.33
2018-02-03T01:04:40.059Z,5.34
2018-02-03T01:07:08.884Z,5.36
2018-02-03T01:09:40.067Z,5.44
2018-02-03T01:12:08.890Z,5.45
2018-02-03T01:14:38.219Z,5.48
2018-02-03T01:17:07.340Z,5.48
2018-02-03T01:19:37.400Z,5.54
2018-02-03T01:22:06.257Z,5.54
2018-02-03T01:24:36.422Z,5.56
2018-02-03T01:27:05.807Z,5.55
2018-02-03T01:29:36.919Z,5.54
2018-02-03T01:32:06.336Z,5.62
2018-02-03T01:34:36.016Z,5.64
2018-02-03T01:37:05.159Z,5.57
2018-02-03T01:39:36.519Z,5.56
2018-02-03T01:42:06.126Z,5.53
2018-02-03T01:44:35.734Z,5.62
2018-02-03T01:47:04.928Z,5.71
2018-02-03T01:49:34.709Z,5.72
2018-02-03T01:52:05.303Z,5.75
2018-02-03T01:54:34.740Z,5.73
2018-02-03T01:57:04.227Z,5.75
2018-02-03T01:59:33.297Z,5.59
2018-02-03T02:02:03.360Z,5.63
2018-02-03T02:04:32.508Z,5.69
2018-02-03T02:07:02.779Z,5.78
2018-02-03T02:09:31.546Z,5.85
2018-02-03T02:12:00.485Z,5.71
2018-02-03T02:14:29.278Z,5.66
2018-02-03T02:16:58.085Z,5.49
2018-02-03T02:19:27.179Z,5.47
2018-02-03T02:21:56.040Z,5.51
2018-02-03T02:24:24.917Z,5.54
2018-02-03T02:26:53.984Z,5.56
2018-02-03T02:29:22.883Z,5.54
2018-02-03T02:31:51.656Z,5.41
2018-02-03T02:34:20.832Z,5.39
2018-02-03T02:36:49.881Z,5.42
2018-02-03T02:39:18.812Z,5.45
2018-02-03T02:41:48.197Z,5.44
2018-02-03T02:44:17.389Z,5.55
2018-02-03T02:46:46.165Z,5.59
2018-02-03T02:49:15.068Z,5.59
2018-02-03T02:51:44.267Z,5.60
2018-02-03T02:54:13.117Z,5.66
2018-02-03T02:57:44.680Z,5.65
2018-02-03T03:00:13.749Z,5.52
2018-02-03T03:02:43.515Z,5.56
2018-02-03T03:05:12.604Z,5.44
2018-02-03T03:07:41.748Z,5.34
2018-02-03T03:10:10.648Z,5.39
2018-02-03T03:12:40.094Z,5.31
2018-02-03T03:15:09.245Z,5.20
2018-02-03T03:17:38.538Z,5.27
2018-02-03T03:20:07.308Z,5.28
2018-02-03T03:22:38.299Z,5.25
2018-02-03T03:25:07.828Z,5.20
2018-02-03T03:27:37.240Z,5.23
2018-02-03T03:30:06.017Z,5.14
2018-02-03T03:32:35.739Z,5.24
2018-02-03T03:35:04.796Z,5.30
2018-02-03T03:37:33.720Z,5.30
2018-02-03T03:41:05.309Z,5.33
2018-02-03T03:43:35.005Z,5.38
2018-02-03T03:46:04.680Z,5.31
2018-02-03T03:48:33.718Z,5.40
2018-02-03T03:51:03.060Z,5.32
2018-02-03T03:53:32.182Z,5.23
2018-02-03T03:56:03.111Z,5.24
2018-02-03T03:58:32.452Z,5.16
2018-02-03T04:01:01.473Z,5.05
2018-02-03T04:03:30.318Z,5.03
2018-02-03T04:05:59.439Z,5.05
2018-02-03T04:08:28.636Z,5.07
2018-02-03T04:10:57.438Z,4.99
2018-02-03T04:13:26.459Z,5.08
2018-02-03T04:15:56.518Z,5.14
2018-02-03T04:18:25.338Z,5.14
2018-02-03T04:20:54.132Z,5.14
2018-02-03T04:23:23.296Z,5.11
2018-02-03T04:25:52.140Z,5.16
2018-02-03T04:28:20.981Z,5.20
2018-02-03T04:30:49.864Z,5.11
2018-02-03T04:33:18.927Z,5.10
2018-02-03T04:35:48.675Z,5.15
2018-02-03T04:38:17.496Z,5.14
2018-02-03T04:40:46.281Z,5.20
2018-02-03T04:43:15.070Z,5.22
2018-02-03T04:45:43.950Z,5.30
2018-02-03T04:48:12.763Z,5.33
2018-02-03T04:50:42.221Z,5.38
2018-02-03T04:53:11.008Z,5.37
2018-02-03T04:55:41.253Z,5.28
2018-02-03T04:58:10.050Z,5.23
2018-02-03T05:00:39.152Z,5.16
2018-02-03T05:03:07.924Z,5.20
2018-02-03T05:05:39.327Z,5.17
2018-02-03T05:08:08.125Z,5.15
2018-02-03T05:10:37.884Z,5.15
2018-02-03T05:13:07.673Z,5.10
2018-02-03T05:15:37.811Z,5.18
2018-02-03T05:18:06.575Z,5.15
2018-02-03T05:20:36.467Z,5.22
2018-02-03T05:23:05.646Z,5.31
2018-02-03T05:25:35.417Z,5.37
2018-02-03T05:28:05.340Z,5.36
2018-02-03T05:30:35.708Z,5.31
2018-02-03T05:33:04.837Z,5.30
2018-02-03T05:35:34.029Z,5.35
2018-02-03T05:38:04.118Z,5.30
2018-02-03T05:40:32.957Z,5.34
2018-02-03T05:43:02.253Z,5.37
2018-02-03T05:45:31.124Z,5.39
2018-02-03T05:48:00.318Z,5.41
2018-02-03T05:50:29.129Z,5.46
2018-02-03T05:52:57.937Z,5.42
2018-02-03T05:55:27.945Z,5.36
2018-02-03T05:57:56.988Z,5.38
2018-02-03T06:00:25.825Z,5.44
2018-02-03T06:02:54.638Z,5.44
2018-02-03T06:05:23.559Z,5.30
2018-02-03T06:07:52.656Z,5.35
2018-02-03T06:10:21.473Z,5.34
2018-02-03T06:12:50.597Z,5.34
2018-02-03T06:15:19.984Z,5.36
2018-02-03T06:17:48.863Z,5.38
2018-02-03T06:20:17.688Z,5.38
2018-02-03T06:22:47.751Z,5.33
2018-02-03T06:25:17.214Z,5.35
2018-02-03T06:27:48.101Z,5.41
2018-02-03T06:30:16.887Z,5.43
2018-02-03T06:32:47.292Z,5.36
2018-02-03T06:35:16.086Z,5.44
2018-02-03T06:37:44.983Z,5.44
2018-02-03T06:40:14.633Z,5.43
2018-02-03T06:42:44.836Z,5.49
2018-02-03T06:45:13.730Z,5.54
2018-02-03T06:47:43.848Z,5.43
2018-02-03T06:50:13.112Z,5.42
2018-02-03T06:52:42.265Z,5.33
2018-02-03T06:55:15.044Z,5.37
2018-02-03T06:57:44.927Z,5.39
2018-02-03T07:00:13.913Z,5.37
2018-02-03T07:02:43.252Z,5.39
2018-02-03T07:05:12.124Z,5.34
2018-02-03T07:07:41.460Z,5.39
2018-02-03T07:10:10.781Z,5.44
2018-02-03T07:12:40.840Z,5.41
2018-02-03T07:15:09.746Z,5.37
2018-02-03T07:17:39.700Z,5.45
2018-02-03T07:20:08.707Z,5.48
2018-02-03T07:22:41.665Z,5.51
2018-02-03T07:25:11.022Z,5.55
2018-02-03T07:27:39.832Z,5.56
2018-02-03T07:30:09.015Z,5.55
2018-02-03T07:32:38.753Z,5.62
2018-02-03T07:35:07.608Z,5.69
2018-02-03T07:37:37.225Z,5.69
2018-02-03T07:40:07.885Z,5.69
2018-02-03T07:42:39.577Z,5.71
2018-02-03T07:45:08.513Z,5.71
2018-02-03T07:47:37.654Z,5.68
2018-02-03T07:50:06.861Z,5.71
2018-02-03T07:52:37.185Z,5.68
2018-02-03T07:55:06.061Z,5.59
2018-02-03T07:57:36.258Z,5.69
2018-02-03T08:00:06.029Z,5.72
2018-02-03T08:02:35.716Z,5.70
2018-02-03T08:05:04.971Z,5.50
2018-02-03T08:07:34.598Z,5.43
2018-02-03T08:10:06.044Z,5.47
2018-02-03T08:12:35.801Z,5.39
2018-02-03T08:15:04.779Z,5.31
2018-02-03T08:17:33.583Z,5.28
2018-02-03T08:20:04.391Z,5.20
2018-02-03T08:22:33.285Z,5.25
2018-02-03T08:25:02.716Z,5.33
2018-02-03T08:27:31.953Z,5.42
2018-02-03T08:30:00.884Z,5.50
2018-02-03T08:32:29.900Z,5.49
2018-02-03T08:34:59.196Z,5.31
2018-02-03T08:37:28.029Z,5.42
2018-02-03T08:39:57.050Z,5.36
2018-02-03T08:42:27.345Z,5.26
2018-02-03T08:44:56.433Z,5.25
2018-02-03T08:47:25.279Z,5.26
2018-02-03T08:49:55.108Z,5.31
2018-02-03T08:52:24.206Z,5.37
2018-02-03T08:54:53.136Z,5.44
2018-02-03T08:57:24.466Z,5.51
2018-02-03T08:59:53.325Z,5.65
2018-02-03T09:02:22.236Z,5.63
2018-02-03T09:04:51.654Z,5.62
2018-02-03T09:07:20.545Z,5.68
2018-02-03T09:09:50.369Z,5.70
2018-02-03T09:12:20.618Z,5.70
2018-02-03T09:14:51.447Z,5.75
2018-02-03T09:17:20.234Z,5.75
2018-02-03T09:19:49.399Z,5.75
2018-02-03T09:22:19.983Z,5.75
2018-02-03T09:24:48.932Z,5.69
2018-02-03T09:27:18.440Z,5.71
2018-02-03T09:29:47.248Z,5.68
2018-02-03T09:32:31.168Z,5.73
2018-02-03T09:35:01.682Z,5.69
2018-02-03T09:37:30.506Z,5.69
2018-02-03T09:39:59.399Z,5.78
2018-02-03T09:42:28.544Z,5.79
2018-02-03T09:44:57.406Z,5.79
2018-02-03T09:47:26.222Z,5.71
2018-02-03T09:49:55.331Z,5.67
2018-02-03T09:52:24.208Z,5.63
2018-02-03T09:54:53.079Z,5.71
2018-02-03T09:57:22.292Z,5.82
2018-02-03T09:59:51.138Z,5.88
2018-02-03T10:02:20.012Z,5.94
2018-02-03T10:04:50.774Z,5.94
2018-02-03T10:07:19.713Z,6.06
2018-02-03T10:09:49.109Z,6.12
2018-02-03T10:12:18.348Z,6.20
2018-02-03T10:14:47.158Z,6.28
2018-02-03T10:17:15.968Z,6.46
2018-02-03T10:19:45.567Z,6.55
2018-02-03T10:22:14.571Z,6.63
2018-02-03T10:24:43.554Z,6.72
2018-02-03T10:27:12.942Z,6.87
2018-02-03T10:29:42.172Z,6.77
2018-02-03T10:32:10.930Z,6.80
2018-02-03T10:34:40.544Z,6.94
2018-02-03T10:37:09.330Z,6.86
2018-02-03T10:39:39.112Z,6.71
2018-02-03T10:42:08.484Z,6.96
2018-02-03T10:44:39.858Z,7.08
2018-02-03T10:47:11.245Z,7.16
2018-02-03T10:49:45.120Z,7.10
2018-02-03T10:52:14.367Z,7.24
2018-02-03T10:54:45.023Z,7.05
2018-02-03T10:57:16.364Z,7.06
2018-02-03T10:59:45.177Z,6.90
2018-02-03T11:02:14.296Z,6.92
2018-02-03T11:04:43.573Z,6.96
2018-02-03T11:07:12.636Z,6.98
2018-02-03T11:09:44.568Z,6.98
2018-02-03T11:12:15.195Z,7.16
2018-02-03T11:14:46.511Z,7.13
2018-02-03T11:17:18.176Z,7.04
2018-02-03T11:19:50.562Z,6.86
2018-02-03T11:22:22.169Z,6.75
2018-02-03T11:24:51.846Z,6.82
2018-02-03T11:27:20.851Z,6.86
2018-02-03T11:29:49.778Z,6.86
2018-02-03T11:32:18.907Z,6.87
2018-02-03T11:34:47.802Z,7.09
2018-02-03T11:37:16.725Z,7.28
2018-02-03T11:39:45.984Z,7.42
2018-02-03T11:42:14.929Z,7.77
2018-02-03T11:44:46.378Z,7.93
2018-02-03T11:47:17.137Z,7.83
2018-02-03T11:49:47.292Z,7.83
2018-02-03T11:52:16.173Z,7.90
2018-02-03T11:54:45.663Z,8.04
2018-02-03T11:57:14.605Z,8.37
2018-02-03T11:59:43.661Z,8.25
2018-02-03T12:02:12.920Z,8.01
2018-02-03T12:04:42.342Z,7.62
2018-02-03T12:07:11.261Z,7.59
2018-02-03T12:09:43.833Z,7.72
2018-02-03T12:12:14.220Z,7.64
2018-02-03T12:14:45.351Z,7.58
2018-02-03T12:17:15.725Z,7.64
2018-02-03T12:19:44.957Z,7.57
2018-02-03T12:22:14.096Z,7.48
2018-02-03T12:24:43.567Z,7.40
2018-02-03T12:27:13.602Z,7.52
2018-02-03T12:29:43.308Z,7.38
2018-02-03T12:32:16.717Z,7.95
2018-02-03T12:34:47.089Z,8.30
2018-02-03T12:37:16.438Z,8.46
2018-02-03T12:39:46.249Z,8.34
2018-02-03T12:42:15.364Z,8.32
2018-02-03T12:44:44.307Z,7.97
2018-02-03T12:47:13.889Z,7.85
2018-02-03T12:49:43.351Z,7.84
2018-02-03T12:52:12.248Z,7.82
2018-02-03T12:54:41.673Z,7.81
2018-02-03T12:57:10.843Z,7.53
2018-02-03T13:02:15.227Z,7.48
2018-02-03T13:04:44.691Z,7.57
2018-02-03T13:07:16.304Z,7.70
2018-02-03T13:10:49.203Z,7.72
2018-02-03T13:13:19.221Z,7.86
2018-02-03T13:15:49.893Z,7.72
2018-02-03T13:18:20.371Z,7.72
2018-02-03T13:20:49.632Z,7.81
2018-02-03T13:23:18.470Z,7.94
2018-02-03T13:25:47.587Z,8.00
2018-02-03T13:28:16.709Z,7.67
2018-02-03T13:30:47.739Z,7.42
2018-02-03T13:33:16.971Z,7.44
2018-02-03T13:35:48.001Z,7.41
2018-02-03T13:38:17.146Z,7.34
2018-02-03T13:40:46.023Z,7.21
2018-02-03T13:43:15.273Z,7.06
2018-02-03T13:45:44.757Z,7.17
2018-02-03T13:48:14.465Z,6.99
2018-02-03T13:50:44.970Z,6.97
2018-02-03T13:53:13.829Z,6.84
2018-02-03T13:58:16.614Z,6.55
2018-02-03T14:00:45.563Z,6.41
2018-02-03T14:03:14.466Z,6.34
2018-02-03T14:05:44.272Z,6.27
2018-02-03T14:08:13.788Z,6.37
2018-02-03T14:10:42.853Z,6.50
2018-02-03T14:13:13.088Z,6.65
2018-02-03T14:15:42.500Z,6.64
2018-02-03T14:18:11.540Z,6.83
2018-02-03T14:20:44.184Z,6.88
2018-02-03T14:23:13.527Z,6.84
2018-02-03T14:25:45.598Z,7.01
2018-02-03T14:28:14.919Z,7.23
2018-02-03T14:30:43.977Z,7.18
2018-02-03T14:33:13.030Z,7.27
2018-02-03T14:35:42.356Z,7.10
2018-02-03T14:38:12.559Z,7.24
2018-02-03T14:40:42.156Z,7.15
2018-02-03T14:43:11.585Z,7.21
2018-02-03T14:45:41.157Z,7.31
2018-02-03T14:48:10.365Z,7.40
2018-02-03T14:50:43.602Z,7.51
2018-02-03T14:53:12.474Z,7.39
2018-02-03T14:55:41.470Z,7.38
2018-02-03T14:58:10.557Z,7.52
2018-02-03T15:00:39.766Z,7.52
2018-02-03T15:03:08.826Z,7.42
2018-02-03T15:05:39.129Z,7.30
2018-02-03T15:08:08.116Z,7.22
2018-02-03T15:10:39.355Z,7.22
2018-02-03T15:13:08.233Z,7.17
2018-02-03T15:15:38.104Z,6.98
2018-02-03T15:18:07.720Z,7.05
2018-02-03T15:20:37.181Z,6.88
2018-02-03T15:23:06.863Z,6.67
2018-02-03T15:25:36.964Z,6.51
2018-02-03T15:28:05.898Z,6.56
2018-02-03T15:30:34.722Z,6.72
2018-02-03T15:33:04.714Z,6.81
2018-02-03T15:35:33.588Z,6.88
2018-02-03T15:38:03.907Z,6.81
2018-02-03T15:40:33.711Z,6.68
2018-02-03T15:43:09.008Z,6.72
2018-02-03T15:45:39.025Z,6.76
2018-02-03T15:48:08.904Z,6.69
2018-02-03T15:50:41.301Z,6.65
2018-02-03T15:53:10.417Z,6.67
2018-02-03T15:55:39.990Z,6.71
2018-02-03T15:58:11.525Z,6.59
2018-02-03T16:00:42.524Z,6.59
2018-02-03T16:03:11.734Z,6.69
2018-02-03T16:05:40.955Z,6.54
2018-02-03T16:08:09.868Z,6.43
2018-02-03T16:10:40.381Z,6.50
2018-02-03T16:13:10.146Z,6.68
2018-02-03T16:15:40.111Z,6.76
2018-02-03T16:18:09.074Z,6.75
2018-02-03T16:20:41.513Z,6.73
2018-02-03T16:23:12.951Z,6.57
2018-02-03T16:25:44.336Z,6.57
2018-02-03T16:30:40.385Z,6.42
2018-02-03T16:33:09.509Z,6.44
2018-02-03T16:35:39.628Z,6.53
2018-02-03T16:38:09.417Z,6.35
2018-02-03T16:40:39.164Z,6.24
2018-02-03T16:43:08.008Z,6.28
2018-02-03T16:45:40.387Z,6.35
2018-02-03T16:48:09.341Z,6.27
2018-02-03T16:50:38.632Z,6.33
2018-02-03T16:53:07.849Z,6.42
2018-02-03T16:55:37.364Z,6.41
2018-02-03T16:58:07.216Z,6.40
2018-02-03T17:00:40.153Z,6.40
2018-02-03T17:03:09.404Z,6.44
2018-02-03T17:05:39.654Z,6.37
2018-02-03T17:08:09.888Z,6.37
2018-02-03T17:10:39.805Z,6.34
2018-02-03T17:13:10.590Z,6.27
2018-02-03T17:15:42.885Z,6.19
2018-02-03T17:18:11.870Z,6.17
2018-02-03T17:20:40.940Z,6.06
2018-02-03T17:23:10.275Z,6.07
2018-02-03T17:25:40.433Z,6.10
2018-02-03T17:28:13.171Z,6.03
2018-02-03T17:30:42.881Z,6.07
2018-02-03T17:33:11.732Z,6.09
2018-02-03T17:35:41.052Z,6.13
2018-02-03T17:38:47.357Z,6.07
2018-02-03T17:41:16.308Z,6.17
2018-02-03T17:43:45.606Z,6.27
2018-02-03T17:47:16.779Z,6.25
2018-02-03T17:49:46.614Z,6.23
2018-02-03T17:52:15.393Z,6.24
2018-02-03T17:54:44.634Z,6.16
2018-02-03T17:57:49.081Z,6.28
2018-02-03T18:00:17.914Z,6.34
2018-02-03T18:02:48.104Z,6.29
2018-02-03T18:05:17.891Z,6.27
2018-02-03T18:07:47.252Z,6.27
2018-02-03T18:10:16.429Z,6.26
2018-02-03T18:12:45.339Z,6.27
2018-02-03T18:15:14.369Z,6.22
2018-02-03T18:17:44.012Z,6.15
2018-02-03T18:20:12.933Z,6.02
2018-02-03T18:22:42.620Z,5.90
2018-02-03T18:25:11.788Z,5.83
2018-02-03T18:27:40.824Z,5.76
2018-02-03T18:30:09.621Z,5.78
2018-02-03T18:32:42.853Z,5.80
2018-02-03T18:35:11.784Z,5.71
2018-02-03T18:37:41.112Z,5.83
2018-02-03T18:40:10.303Z,5.81
2018-02-03T18:42:40.518Z,5.73
2018-02-03T18:45:19.177Z,5.71
2018-02-03T18:47:51.029Z,5.72
2018-02-03T18:50:19.917Z,5.80
2018-02-03T18:52:52.513Z,5.77
2018-02-03T18:55:34.242Z,5.87
2018-02-03T18:58:08.853Z,5.80
2018-02-03T19:00:42.877Z,5.91
2018-02-03T19:03:14.339Z,5.85
2018-02-03T19:05:43.234Z,5.87
2018-02-03T19:08:12.129Z,5.85
2018-02-03T19:10:41.268Z,5.94
2018-02-03T19:13:10.380Z,5.81
2018-02-03T19:15:43.089Z,5.91
2018-02-03T19:18:11.961Z,5.99
2018-02-03T19:20:41.734Z,6.03
2018-02-03T19:23:10.540Z,6.05
2018-02-03T19:25:40.463Z,6.05
2018-02-03T19:28:09.546Z,5.98
2018-02-03T19:30:39.488Z,6.01
2018-02-03T19:33:08.877Z,6.08
2018-02-03T19:35:38.297Z,6.04
2018-02-03T19:38:07.161Z,6.04
2018-02-03T19:40:36.581Z,6.14
2018-02-03T19:43:05.808Z,6.16
2018-02-03T19:45:34.671Z,6.14
2018-02-03T19:48:04.493Z,6.18
2018-02-03T19:50:33.752Z,6.21
2018-02-03T19:53:03.653Z,6.19
2018-02-03T19:55:32.468Z,6.13
2018-02-03T19:58:03.195Z,6.15
2018-02-03T20:00:32.029Z,6.20
2018-02-03T20:03:00.837Z,6.18
2018-02-03T20:05:29.905Z,6.15
2018-02-03T20:07:58.778Z,6.21
2018-02-03T20:10:27.568Z,6.20
2018-02-03T20:12:56.670Z,6.19
2018-02-03T20:15:25.942Z,6.19
2018-02-03T20:17:54.847Z,6.19
2018-02-03T20:20:23.872Z,6.04
2018-02-03T20:22:52.696Z,6.04
2018-02-03T20:25:21.655Z,5.94
2018-02-03T20:27:51.500Z,5.97
2018-02-03T20:30:20.414Z,6.05
2018-02-03T20:32:49.229Z,6.04
2018-02-03T20:35:18.309Z,6.05
2018-02-03T20:37:48.944Z,5.99
2018-02-03T20:40:17.793Z,5.98
2018-02-03T20:42:47.182Z,5.92
2018-02-03T20:45:16.036Z,5.86
2018-02-03T20:47:46.437Z,5.81
2018-02-03T20:50:15.752Z,5.69
2018-02-03T20:52:44.790Z,5.69
2018-02-03T20:55:13.635Z,5.73
2018-02-03T20:57:43.217Z,5.66
2018-02-03T21:00:12.042Z,5.71
2018-02-03T21:02:44.465Z,5.77
2018-02-03T21:07:41.430Z,5.75
2018-02-03T21:10:11.304Z,5.83
2018-02-03T21:12:41.359Z,5.90
2018-02-03T21:15:10.124Z,5.89
2018-02-03T21:17:40.729Z,5.86
2018-02-03T21:20:09.874Z,5.86
2018-02-03T21:22:39.743Z,5.87
2018-02-03T21:25:08.689Z,5.81
2018-02-03T21:27:40.092Z,5.74
2018-02-03T21:30:08.921Z,5.78
2018-02-03T21:32:40.594Z,5.87
2018-02-03T21:35:09.709Z,5.86
2018-02-03T21:37:39.702Z,5.97
2018-02-03T21:40:08.901Z,5.98
2018-02-03T21:42:39.920Z,6.01
2018-02-03T21:45:09.404Z,6.07
2018-02-03T21:47:39.477Z,6.08
2018-02-03T21:50:09.242Z,6.03
2018-02-03T21:52:38.553Z,6.02
2018-02-03T21:55:07.938Z,5.94
2018-02-03T21:57:37.432Z,6.11
2018-02-03T22:00:07.128Z,6.02
2018-02-03T22:02:36.372Z,6.04
2018-02-03T22:05:05.609Z,6.05
2018-02-03T22:07:34.424Z,6.01
2018-02-03T22:10:05.764Z,5.93
2018-02-03T22:12:34.556Z,5.98
2018-02-03T22:15:09.016Z,6.03
2018-02-03T22:17:42.365Z,6.11
2018-02-03T22:20:11.669Z,6.08
2018-02-03T22:22:41.648Z,6.15
2018-02-03T22:25:10.456Z,6.09
2018-02-03T22:27:41.329Z,6.12
2018-02-03T22:30:10.098Z,6.12
2018-02-03T22:32:40.307Z,6.07
2018-02-03T22:35:09.401Z,6.07
2018-02-03T22:37:40.558Z,6.14
2018-02-03T22:40:09.943Z,6.11
2018-02-03T22:42:39.660Z,6.02
2018-02-03T22:45:08.480Z,6.02
2018-02-03T22:47:38.738Z,6.01
2018-02-03T22:50:07.569Z,6.08
2018-02-03T22:52:36.415Z,6.07
2018-02-03T22:55:05.200Z,6.02
2018-02-03T22:57:34.100Z,6.02
2018-02-03T23:00:05.300Z,6.00
2018-02-03T23:02:38.988Z,5.99
2018-02-03T23:05:09.209Z,6.00
2018-02-03T23:07:39.860Z,6.01
2018-02-03T23:10:09.032Z,6.02
2018-02-03T23:12:38.076Z,5.96
2018-02-03T23:15:07.264Z,5.94
2018-02-03T23:17:36.343Z,5.98
2018-02-03T23:20:05.960Z,5.94
2018-02-03T23:22:34.748Z,5.91
2018-02-03T23:25:04.245Z,5.86
2018-02-03T23:27:33.048Z,5.86
2018-02-03T23:30:04.055Z,5.80
2018-02-03T23:32:33.112Z,5.65
2018-02-03T23:35:02.277Z,5.65
2018-02-03T23:37:31.045Z,5.69
2018-02-03T23:40:00.294Z,5.74
2018-02-03T23:42:29.195Z,5.72
2018-02-03T23:44:58.232Z,5.77
2018-02-03T23:47:27.487Z,5.65
2018-02-03T23:49:56.355Z,5.71
2018-02-03T23:52:25.206Z,5.58
2018-02-03T23:54:54.541Z,5.60
2018-02-03T23:57:23.408Z,5.48
2018-02-03T23:59:52.541Z,5.36
